Thursday, April 26, 2018, 4:38 PM EDT
Back to Local

KJYO, Leesburg / Godfrey

Location: Leesburg, VA, United States Lat: 39.083
Local Time: 4:38 PM EDT (20:38 GMT) Lon: -77.567
Time Zone: US/Eastern Elev: 390 ft

Show me the last for .
Show Coded

Time T Td Feel RH Dir Speed Gust Alt SLP Vis Weather Sky Remarks
2018-04-26 16:15 70 37 - 30 300° 7 - 29.85 - 10 CLR None
2018-04-26 15:55 68 39 - 34 310° 12 - 29.85 - 10 CLR None
2018-04-26 15:35 68 39 - 34 310° 13 - 29.86 - 10 CLR None
2018-04-26 15:15 68 39 - 34 300° 8 - 29.86 - 10 CLR None
2018-04-26 14:55 68 41 - 37 320° 6 - 29.87 - 10 CLR None
2018-04-26 14:35 68 41 - 37 330° 10 21 29.87 - 10 CLR None
2018-04-26 14:15 66 43 - 42 300° 6 20 29.87 - 10 CLR None
2018-04-26 13:55 64 43 - 45 310° 16 20 29.87 - 10 CLR None
2018-04-26 13:35 64 43 - 45 320° 10 17 29.88 - 10 CLR None
2018-04-26 13:15 64 43 - 45 330° 14 17 29.88 - 10 CLR None
2018-04-26 12:55 63 43 - 48 320° 14 26 29.89 - 10 CLR None
2018-04-26 12:35 63 43 - 48 320° 13 21 29.90 - 10 CLR None
2018-04-26 12:15 61 43 - 51 280° 15 21 29.90 - 10 CLR None
2018-04-26 11:55 61 43 - 51 320° 16 22 29.90 - 10 CLR None
2018-04-26 11:35 61 41 - 48 280° 15 20 29.90 - 10 CLR None
2018-04-26 11:15 59 43 - 54 300° 16 21 29.91 - 10 CLR None
2018-04-26 10:55 59 43 - 54 300° 8 12 29.90 - 10 CLR None
2018-04-26 10:35 57 43 - 58 290° 17 23 29.90 - 10 CLR None
2018-04-26 10:15 57 43 - 58 300° 16 22 29.90 - 10 CLR None
2018-04-26 09:55 55 43 - 62 290° 16 21 29.90 - 10 CLR None
2018-04-26 09:35 54 43 - 66 280° 14 20 29.90 - 10 CLR None
2018-04-26 09:15 54 41 - 62 300° 13 18 29.90 - 10 CLR None
2018-04-26 08:55 54 41 - 62 300° 10 18 29.90 - 10 CLR None
2018-04-26 08:35 52 41 - 66 320° 15 24 29.90 - 10 CLR None
2018-04-26 08:15 52 43 - 71 300° 18 - 29.89 - 10 CLR None
2018-04-26 07:55 50 41 44 71 290° 16 - 29.89 - 10 CLR None
2018-04-26 07:35 50 41 44 71 290° 13 20 29.88 - 10 CLR None
2018-04-26 07:15 48 41 42 76 290° 15 18 29.87 - 10 CLR None
2018-04-26 06:55 46 41 40 81 290° 14 - 29.85 - 10 CLR None
2018-04-26 06:35 46 41 40 81 290° 14 - 29.85 - 10 CLR None
2018-04-26 06:15 46 41 41 81 290° 12 - 29.84 - 10 CLR None
2018-04-26 05:55 46 41 42 81 300° 9 - 29.84 - 10 CLR None
2018-04-26 05:35 46 41 41 81 300° 10 - 29.84 - 10 CLR None
2018-04-26 05:15 46 41 41 81 290° 12 - 29.84 - 10 CLR None
2018-04-26 04:55 46 41 41 81 300° 12 - 29.85 - 10 CLR None
2018-04-26 04:35 46 41 41 81 290° 10 - 29.85 - 10 CLR None
2018-04-26 04:15 48 43 43 81 290° 12 - 29.85 - 10 CLR None
2018-04-26 03:55 50 41 44 71 310° 13 16 29.84 - 10 CLR None
2018-04-26 03:35 50 41 45 71 310° 15 - 29.83 - 10 CLR None
2018-04-26 03:15 50 41 43 71 310° 15 21 29.81 - 10 CLR None
2018-04-26 02:55 52 41 - 66 20° 6 20 29.81 - 10 CLR None
2018-04-26 02:35 52 43 - 71 330° 8 18 29.80 - 10 CLR None
2018-04-26 02:15 54 43 - 66 350° 6 18 29.80 - 10 SCT038 None
2018-04-26 01:55 54 45 - 71 350° 7 - 29.80 - 10 BKN038 None
2018-04-26 01:35 55 46 - 71 330° 9 - 29.80 - 10 SCT038 None
2018-04-26 01:15 55 48 - 76 330° 14 17 29.79 - 10 SCT033 BKN041 None
2018-04-26 00:55 57 48 - 71 300° 13 17 29.78 - 10 BKN043 OVC048 None
2018-04-26 00:35 57 48 - 71 320° 10 16 29.78 - 10 OVC047 None
2018-04-26 00:15 59 50 - 72 320° 10 20 29.77 - 10 SCT035 SCT041 OVC049 None
2018-04-25 23:55 59 52 - 77 320° 13 20 29.77 - 10 SCT033 OVC047 None
2018-04-25 23:35 57 52 - 82 320° 10 - 29.77 - 10 SCT034 BKN049 None
2018-04-25 23:15 57 52 - 82 340° 6 - 29.77 - 10 SCT047 None
2018-04-25 22:55 57 52 - 82 320° 5 - 29.77 - 10 CLR None
2018-04-25 22:35 55 52 - 87 310° 6 - 29.76 - 10 CLR None
2018-04-25 22:15 57 52 - 82 320° 9 - 29.76 - 10 SCT046 None
2018-04-25 21:55 59 52 - 77 310° 9 - 29.76 - 10 BKN048 BKN110 None
2018-04-25 21:35 61 52 - 72 330° 13 16 29.76 - 10 OVC050 None
2018-04-25 21:15 59 55 - 87 310° 9 - 29.76 - 10 BKN050 OVC110 None
2018-04-25 20:55 59 55 - 87 310° 6 - 29.75 - 10 SCT040 BKN047 OVC110 None
2018-04-25 20:35 59 55 - 87 300° 5 - 29.74 - 10 BKN050 OVC100 None
2018-04-25 20:15 59 55 - 87 340° 3 - 29.74 - 10 SCT050 OVC090 None
2018-04-25 19:55 59 59 - 100 340° 5 - 29.73 - 10 OVC090 None
2018-04-25 19:35 59 59 - 100 - Calm - 29.72 - 10 SCT041 BKN070 OVC080 None
2018-04-25 19:15 59 59 - 100 - Calm - 29.71 - 10 SCT041 OVC049 None
2018-04-25 18:55 59 59 - 100 - Calm - 29.71 - 10 SCT036 BKN047 OVC090 None
2018-04-25 18:35 61 61 - 100 - Calm - 29.71 - 10 SCT044 BKN090 OVC110 None
2018-04-25 18:15 59 59 - 100 - Calm - 29.70 - 10 SCT047 SCT090 OVC110 None
2018-04-25 17:55 59 59 - 100 20° 3 - 29.71 - 10 SCT044 BKN080 OVC110 None
2018-04-25 17:35 59 59 - 100 - Calm - 29.70 - 10 SCT006 BKN044 OVC080 None
2018-04-25 17:15 57 57 - 100 50° 5 - 29.71 - 10 SCT006 OVC041 None
2018-04-25 16:55 57 57 - 100 40° 5 - 29.71 - 10 SCT006 BKN037 OVC070 1-hr Precip Total: 0.04"

Support USWX by starting your Amazon purchase here.